sensor_id;sensor_type;location;lat;lon;timestamp;P1;durP1;ratioP1;P2;durP2;ratioP2
67715;SDS011;54508;43.238;25.306;2023-04-09T00:01:38;17.23;;;11.33;;
67715;SDS011;54508;43.238;25.306;2023-04-09T00:04:03;13.60;;;10.93;;
67715;SDS011;54508;43.238;25.306;2023-04-09T00:06:29;14.30;;;10.60;;
67715;SDS011;54508;43.238;25.306;2023-04-09T00:08:55;13.98;;;11.00;;
67715;SDS011;54508;43.238;25.306;2023-04-09T00:11:20;14.20;;;10.53;;
67715;SDS011;54508;43.238;25.306;2023-04-09T00:13:46;17.57;;;10.63;;
67715;SDS011;54508;43.238;25.306;2023-04-09T00:16:11;13.88;;;10.60;;
67715;SDS011;54508;43.238;25.306;2023-04-09T00:18:37;14.70;;;10.90;;
67715;SDS011;54508;43.238;25.306;2023-04-09T00:21:02;14.50;;;10.73;;
67715;SDS011;54508;43.238;25.306;2023-04-09T00:23:28;14.07;;;10.67;;
67715;SDS011;54508;43.238;25.306;2023-04-09T00:25:53;14.40;;;10.30;;
67715;SDS011;54508;43.238;25.306;2023-04-09T00:28:19;13.20;;;9.63;;
67715;SDS011;54508;43.238;25.306;2023-04-09T00:30:44;13.37;;;10.53;;
67715;SDS011;54508;43.238;25.306;2023-04-09T00:33:10;16.10;;;10.33;;
67715;SDS011;54508;43.238;25.306;2023-04-09T00:35:35;15.88;;;10.60;;
67715;SDS011;54508;43.238;25.306;2023-04-09T00:38:01;13.60;;;11.20;;
67715;SDS011;54508;43.238;25.306;2023-04-09T00:40:26;12.97;;;10.00;;
67715;SDS011;54508;43.238;25.306;2023-04-09T00:42:52;13.57;;;10.40;;
67715;SDS011;54508;43.238;25.306;2023-04-09T00:45:17;13.32;;;10.70;;
67715;SDS011;54508;43.238;25.306;2023-04-09T00:47:42;13.40;;;10.00;;
67715;SDS011;54508;43.238;25.306;2023-04-09T00:50:10;12.95;;;10.13;;
67715;SDS011;54508;43.238;25.306;2023-04-09T00:52:35;12.07;;;9.33;;
67715;SDS011;54508;43.238;25.306;2023-04-09T00:55:02;15.38;;;10.73;;
67715;SDS011;54508;43.238;25.306;2023-04-09T00:57:29;13.20;;;10.02;;
67715;SDS011;54508;43.238;25.306;2023-04-09T00:59:54;14.95;;;10.52;;
67715;SDS011;54508;43.238;25.306;2023-04-09T01:02:20;11.73;;;9.60;;
67715;SDS011;54508;43.238;25.306;2023-04-09T01:04:45;11.32;;;9.85;;
67715;SDS011;54508;43.238;25.306;2023-04-09T01:10:46;14.52;;;11.05;;
67715;SDS011;54508;43.238;25.306;2023-04-09T01:15:33;13.75;;;9.55;;
67715;SDS011;54508;43.238;25.306;2023-04-09T01:18:09;12.93;;;9.82;;
67715;SDS011;54508;43.238;25.306;2023-04-09T01:29:17;11.95;;;10.20;;
67715;SDS011;54508;43.238;25.306;2023-04-09T01:31:44;14.65;;;10.40;;
67715;SDS011;54508;43.238;25.306;2023-04-09T01:34:11;11.00;;;9.30;;
67715;SDS011;54508;43.238;25.306;2023-04-09T01:36:38;12.50;;;9.65;;
67715;SDS011;54508;43.238;25.306;2023-04-09T01:39:05;14.70;;;10.45;;
67715;SDS011;54508;43.238;25.306;2023-04-09T01:41:31;14.27;;;9.80;;
67715;SDS011;54508;43.238;25.306;2023-04-09T01:43:57;12.70;;;10.15;;
67715;SDS011;54508;43.238;25.306;2023-04-09T01:46:25;11.95;;;9.70;;
67715;SDS011;54508;43.238;25.306;2023-04-09T01:48:51;11.90;;;9.40;;
67715;SDS011;54508;43.238;25.306;2023-04-09T01:51:16;13.63;;;9.98;;
67715;SDS011;54508;43.238;25.306;2023-04-09T01:53:42;13.17;;;9.90;;
67715;SDS011;54508;43.238;25.306;2023-04-09T01:56:08;12.18;;;9.63;;
67715;SDS011;54508;43.238;25.306;2023-04-09T01:58:34;12.25;;;9.38;;
67715;SDS011;54508;43.238;25.306;2023-04-09T02:01:11;14.00;;;8.93;;
67715;SDS011;54508;43.238;25.306;2023-04-09T02:03:45;11.70;;;8.93;;
67715;SDS011;54508;43.238;25.306;2023-04-09T02:06:16;11.40;;;9.85;;
67715;SDS011;54508;43.238;25.306;2023-04-09T02:08:51;12.40;;;9.35;;
67715;SDS011;54508;43.238;25.306;2023-04-09T02:11:17;12.43;;;10.30;;
67715;SDS011;54508;43.238;25.306;2023-04-09T02:13:43;11.57;;;9.65;;
67715;SDS011;54508;43.238;25.306;2023-04-09T02:16:10;13.25;;;10.07;;
67715;SDS011;54508;43.238;25.306;2023-04-09T02:18:38;13.00;;;9.30;;
67715;SDS011;54508;43.238;25.306;2023-04-09T02:21:03;13.67;;;8.97;;
67715;SDS011;54508;43.238;25.306;2023-04-09T02:23:29;14.45;;;10.13;;
67715;SDS011;54508;43.238;25.306;2023-04-09T02:25:57;11.70;;;9.35;;
67715;SDS011;54508;43.238;25.306;2023-04-09T02:28:22;11.32;;;9.00;;
67715;SDS011;54508;43.238;25.306;2023-04-09T02:30:48;12.00;;;9.47;;
67715;SDS011;54508;43.238;25.306;2023-04-09T02:33:13;12.87;;;9.60;;
67715;SDS011;54508;43.238;25.306;2023-04-09T02:35:39;12.63;;;9.35;;
67715;SDS011;54508;43.238;25.306;2023-04-09T02:38:04;11.73;;;9.40;;
67715;SDS011;54508;43.238;25.306;2023-04-09T02:40:30;11.97;;;9.03;;
67715;SDS011;54508;43.238;25.306;2023-04-09T02:42:55;13.50;;;9.90;;
67715;SDS011;54508;43.238;25.306;2023-04-09T02:45:21;14.50;;;9.45;;
67715;SDS011;54508;43.238;25.306;2023-04-09T02:47:47;11.17;;;9.00;;
67715;SDS011;54508;43.238;25.306;2023-04-09T02:50:12;12.18;;;8.90;;
67715;SDS011;54508;43.238;25.306;2023-04-09T02:52:37;11.33;;;8.60;;
67715;SDS011;54508;43.238;25.306;2023-04-09T02:55:03;10.37;;;8.77;;
67715;SDS011;54508;43.238;25.306;2023-04-09T02:57:29;11.70;;;8.95;;
67715;SDS011;54508;43.238;25.306;2023-04-09T02:59:54;13.60;;;9.43;;
67715;SDS011;54508;43.238;25.306;2023-04-09T03:02:20;12.33;;;9.03;;
67715;SDS011;54508;43.238;25.306;2023-04-09T03:04:45;10.57;;;8.70;;
67715;SDS011;54508;43.238;25.306;2023-04-09T03:07:11;9.85;;;8.55;;
67715;SDS011;54508;43.238;25.306;2023-04-09T03:09:36;11.73;;;8.70;;
67715;SDS011;54508;43.238;25.306;2023-04-09T03:12:01;11.47;;;8.87;;
67715;SDS011;54508;43.238;25.306;2023-04-09T03:14:27;10.53;;;8.60;;
67715;SDS011;54508;43.238;25.306;2023-04-09T03:16:53;12.00;;;9.02;;
67715;SDS011;54508;43.238;25.306;2023-04-09T03:19:18;11.90;;;9.03;;
67715;SDS011;54508;43.238;25.306;2023-04-09T03:21:44;13.00;;;9.00;;
67715;SDS011;54508;43.238;25.306;2023-04-09T03:24:10;10.98;;;8.80;;
67715;SDS011;54508;43.238;25.306;2023-04-09T03:26:36;9.48;;;8.18;;
67715;SDS011;54508;43.238;25.306;2023-04-09T03:29:05;11.23;;;8.60;;
67715;SDS011;54508;43.238;25.306;2023-04-09T03:31:31;10.95;;;8.70;;
67715;SDS011;54508;43.238;25.306;2023-04-09T03:33:57;11.15;;;8.77;;
67715;SDS011;54508;43.238;25.306;2023-04-09T03:36:22;12.00;;;9.17;;
67715;SDS011;54508;43.238;25.306;2023-04-09T03:38:48;10.87;;;8.47;;
67715;SDS011;54508;43.238;25.306;2023-04-09T03:41:14;9.82;;;8.35;;
67715;SDS011;54508;43.238;25.306;2023-04-09T03:43:40;10.35;;;8.05;;
67715;SDS011;54508;43.238;25.306;2023-04-09T03:46:15;11.23;;;9.17;;
67715;SDS011;54508;43.238;25.306;2023-04-09T03:48:41;11.90;;;9.60;;
67715;SDS011;54508;43.238;25.306;2023-04-09T03:51:13;10.05;;;8.30;;
67715;SDS011;54508;43.238;25.306;2023-04-09T03:53:39;12.00;;;9.10;;
67715;SDS011;54508;43.238;25.306;2023-04-09T03:56:06;10.80;;;8.68;;
67715;SDS011;54508;43.238;25.306;2023-04-09T03:58:32;10.15;;;8.32;;
67715;SDS011;54508;43.238;25.306;2023-04-09T04:00:58;11.40;;;8.90;;
67715;SDS011;54508;43.238;25.306;2023-04-09T04:03:23;11.30;;;8.75;;
67715;SDS011;54508;43.238;25.306;2023-04-09T04:05:48;12.97;;;9.17;;
67715;SDS011;54508;43.238;25.306;2023-04-09T04:08:14;10.87;;;8.70;;
67715;SDS011;54508;43.238;25.306;2023-04-09T04:10:40;11.82;;;8.65;;
67715;SDS011;54508;43.238;25.306;2023-04-09T04:13:05;13.13;;;8.60;;
67715;SDS011;54508;43.238;25.306;2023-04-09T04:15:32;10.82;;;8.55;;
67715;SDS011;54508;43.238;25.306;2023-04-09T04:17:58;13.38;;;8.88;;
67715;SDS011;54508;43.238;25.306;2023-04-09T04:20:23;13.67;;;8.50;;
67715;SDS011;54508;43.238;25.306;2023-04-09T04:22:49;10.10;;;8.67;;
67715;SDS011;54508;43.238;25.306;2023-04-09T04:25:14;10.53;;;8.77;;
67715;SDS011;54508;43.238;25.306;2023-04-09T04:27:40;9.55;;;7.85;;
67715;SDS011;54508;43.238;25.306;2023-04-09T04:30:06;12.03;;;8.27;;
67715;SDS011;54508;43.238;25.306;2023-04-09T04:32:32;11.52;;;8.10;;
67715;SDS011;54508;43.238;25.306;2023-04-09T04:34:58;11.63;;;8.75;;
67715;SDS011;54508;43.238;25.306;2023-04-09T04:37:23;12.13;;;8.57;;
67715;SDS011;54508;43.238;25.306;2023-04-09T04:39:49;9.87;;;8.60;;
67715;SDS011;54508;43.238;25.306;2023-04-09T04:42:14;10.27;;;7.77;;
67715;SDS011;54508;43.238;25.306;2023-04-09T04:44:40;9.90;;;7.88;;
67715;SDS011;54508;43.238;25.306;2023-04-09T04:47:06;12.85;;;8.35;;
67715;SDS011;54508;43.238;25.306;2023-04-09T04:49:31;8.63;;;7.33;;
67715;SDS011;54508;43.238;25.306;2023-04-09T04:51:57;10.80;;;8.40;;
67715;SDS011;54508;43.238;25.306;2023-04-09T04:54:22;11.00;;;8.33;;
67715;SDS011;54508;43.238;25.306;2023-04-09T04:56:48;9.43;;;7.70;;
67715;SDS011;54508;43.238;25.306;2023-04-09T04:59:13;9.60;;;7.68;;
67715;SDS011;54508;43.238;25.306;2023-04-09T05:01:39;10.17;;;7.97;;
67715;SDS011;54508;43.238;25.306;2023-04-09T05:04:04;10.05;;;8.27;;
67715;SDS011;54508;43.238;25.306;2023-04-09T05:06:30;9.48;;;7.95;;
67715;SDS011;54508;43.238;25.306;2023-04-09T05:08:56;10.17;;;7.63;;
67715;SDS011;54508;43.238;25.306;2023-04-09T05:11:25;9.55;;;7.00;;
67715;SDS011;54508;43.238;25.306;2023-04-09T05:13:50;9.18;;;7.55;;
67715;SDS011;54508;43.238;25.306;2023-04-09T05:16:16;10.03;;;7.73;;
67715;SDS011;54508;43.238;25.306;2023-04-09T05:18:42;11.23;;;8.15;;
67715;SDS011;54508;43.238;25.306;2023-04-09T05:21:08;9.30;;;7.83;;
67715;SDS011;54508;43.238;25.306;2023-04-09T05:23:33;10.88;;;8.02;;
67715;SDS011;54508;43.238;25.306;2023-04-09T05:25:59;9.67;;;8.07;;
67715;SDS011;54508;43.238;25.306;2023-04-09T05:28:24;10.70;;;8.40;;
67715;SDS011;54508;43.238;25.306;2023-04-09T05:30:50;12.73;;;8.17;;
67715;SDS011;54508;43.238;25.306;2023-04-09T05:33:15;12.10;;;8.45;;
67715;SDS011;54508;43.238;25.306;2023-04-09T05:35:41;12.03;;;7.63;;
67715;SDS011;54508;43.238;25.306;2023-04-09T05:38:06;9.93;;;7.87;;
67715;SDS011;54508;43.238;25.306;2023-04-09T05:40:31;9.53;;;8.07;;
67715;SDS011;54508;43.238;25.306;2023-04-09T05:42:57;9.45;;;7.55;;
67715;SDS011;54508;43.238;25.306;2023-04-09T05:45:22;11.37;;;8.20;;
67715;SDS011;54508;43.238;25.306;2023-04-09T05:47:48;8.43;;;7.37;;
67715;SDS011;54508;43.238;25.306;2023-04-09T05:50:13;8.55;;;7.28;;
67715;SDS011;54508;43.238;25.306;2023-04-09T05:52:39;9.63;;;8.32;;
67715;SDS011;54508;43.238;25.306;2023-04-09T05:55:05;8.40;;;7.07;;
67715;SDS011;54508;43.238;25.306;2023-04-09T05:57:31;8.77;;;7.88;;
67715;SDS011;54508;43.238;25.306;2023-04-09T05:59:56;9.50;;;7.43;;
67715;SDS011;54508;43.238;25.306;2023-04-09T06:02:22;11.23;;;8.20;;
67715;SDS011;54508;43.238;25.306;2023-04-09T06:04:49;9.70;;;7.60;;
67715;SDS011;54508;43.238;25.306;2023-04-09T06:07:14;9.03;;;7.43;;
67715;SDS011;54508;43.238;25.306;2023-04-09T06:09:40;9.13;;;7.67;;
67715;SDS011;54508;43.238;25.306;2023-04-09T06:12:08;10.77;;;7.70;;
67715;SDS011;54508;43.238;25.306;2023-04-09T06:14:33;9.73;;;7.28;;
67715;SDS011;54508;43.238;25.306;2023-04-09T06:16:59;11.83;;;8.20;;
67715;SDS011;54508;43.238;25.306;2023-04-09T06:19:24;10.90;;;8.23;;
67715;SDS011;54508;43.238;25.306;2023-04-09T06:21:50;9.65;;;7.60;;
67715;SDS011;54508;43.238;25.306;2023-04-09T06:24:15;11.30;;;8.70;;
67715;SDS011;54508;43.238;25.306;2023-04-09T06:26:41;9.67;;;8.00;;
67715;SDS011;54508;43.238;25.306;2023-04-09T06:29:06;10.53;;;7.33;;
67715;SDS011;54508;43.238;25.306;2023-04-09T06:31:32;10.15;;;7.78;;
67715;SDS011;54508;43.238;25.306;2023-04-09T06:33:57;8.87;;;7.63;;
67715;SDS011;54508;43.238;25.306;2023-04-09T06:36:23;9.10;;;7.03;;
67715;SDS011;54508;43.238;25.306;2023-04-09T06:38:49;9.85;;;7.85;;
67715;SDS011;54508;43.238;25.306;2023-04-09T06:41:14;10.77;;;7.83;;
67715;SDS011;54508;43.238;25.306;2023-04-09T06:43:40;10.18;;;8.00;;
67715;SDS011;54508;43.238;25.306;2023-04-09T06:46:06;12.40;;;8.00;;
67715;SDS011;54508;43.238;25.306;2023-04-09T06:48:31;8.60;;;7.68;;
67715;SDS011;54508;43.238;25.306;2023-04-09T06:50:57;9.20;;;7.77;;
67715;SDS011;54508;43.238;25.306;2023-04-09T06:53:22;9.20;;;7.20;;
67715;SDS011;54508;43.238;25.306;2023-04-09T06:55:48;9.57;;;7.03;;
67715;SDS011;54508;43.238;25.306;2023-04-09T06:58:13;8.32;;;7.22;;
67715;SDS011;54508;43.238;25.306;2023-04-09T07:00:40;13.30;;;8.25;;
67715;SDS011;54508;43.238;25.306;2023-04-09T07:03:05;14.45;;;9.02;;
67715;SDS011;54508;43.238;25.306;2023-04-09T07:05:33;9.82;;;7.72;;
67715;SDS011;54508;43.238;25.306;2023-04-09T07:07:58;10.23;;;8.10;;
67715;SDS011;54508;43.238;25.306;2023-04-09T07:10:24;10.87;;;7.27;;
67715;SDS011;54508;43.238;25.306;2023-04-09T07:12:49;9.43;;;7.70;;
67715;SDS011;54508;43.238;25.306;2023-04-09T07:15:15;9.67;;;7.73;;
67715;SDS011;54508;43.238;25.306;2023-04-09T07:17:41;8.80;;;7.27;;
67715;SDS011;54508;43.238;25.306;2023-04-09T07:20:07;9.55;;;7.70;;
67715;SDS011;54508;43.238;25.306;2023-04-09T07:22:32;9.82;;;7.10;;
67715;SDS011;54508;43.238;25.306;2023-04-09T07:24:58;10.07;;;7.93;;
67715;SDS011;54508;43.238;25.306;2023-04-09T07:27:26;8.80;;;7.20;;
67715;SDS011;54508;43.238;25.306;2023-04-09T07:29:56;9.05;;;7.60;;
67715;SDS011;54508;43.238;25.306;2023-04-09T07:32:22;10.43;;;8.18;;
67715;SDS011;54508;43.238;25.306;2023-04-09T07:34:49;11.95;;;8.00;;
67715;SDS011;54508;43.238;25.306;2023-04-09T07:37:16;12.27;;;7.85;;
67715;SDS011;54508;43.238;25.306;2023-04-09T07:39:41;9.90;;;7.77;;
67715;SDS011;54508;43.238;25.306;2023-04-09T07:42:07;9.13;;;7.10;;
67715;SDS011;54508;43.238;25.306;2023-04-09T07:44:33;8.57;;;7.68;;
67715;SDS011;54508;43.238;25.306;2023-04-09T07:46:59;10.02;;;7.65;;
67715;SDS011;54508;43.238;25.306;2023-04-09T07:49:25;10.73;;;7.67;;
67715;SDS011;54508;43.238;25.306;2023-04-09T07:51:51;12.00;;;8.00;;
67715;SDS011;54508;43.238;25.306;2023-04-09T07:54:16;12.23;;;7.90;;
67715;SDS011;54508;43.238;25.306;2023-04-09T07:56:42;10.50;;;7.33;;
67715;SDS011;54508;43.238;25.306;2023-04-09T07:59:07;9.30;;;7.27;;
67715;SDS011;54508;43.238;25.306;2023-04-09T08:01:32;8.05;;;7.10;;
67715;SDS011;54508;43.238;25.306;2023-04-09T08:03:58;9.73;;;7.33;;
67715;SDS011;54508;43.238;25.306;2023-04-09T08:06:23;10.63;;;7.07;;
67715;SDS011;54508;43.238;25.306;2023-04-09T08:08:50;13.18;;;7.60;;
67715;SDS011;54508;43.238;25.306;2023-04-09T08:11:15;8.17;;;6.93;;
67715;SDS011;54508;43.238;25.306;2023-04-09T08:13:46;7.95;;;6.80;;
67715;SDS011;54508;43.238;25.306;2023-04-09T08:16:11;10.00;;;7.80;;
67715;SDS011;54508;43.238;25.306;2023-04-09T08:18:37;9.50;;;6.90;;
67715;SDS011;54508;43.238;25.306;2023-04-09T08:21:03;9.95;;;6.72;;
67715;SDS011;54508;43.238;25.306;2023-04-09T08:23:30;9.20;;;7.10;;
67715;SDS011;54508;43.238;25.306;2023-04-09T08:25:55;11.20;;;7.85;;
67715;SDS011;54508;43.238;25.306;2023-04-09T08:28:21;10.55;;;6.90;;
67715;SDS011;54508;43.238;25.306;2023-04-09T08:30:47;9.43;;;7.47;;
67715;SDS011;54508;43.238;25.306;2023-04-09T08:33:12;11.17;;;7.73;;
67715;SDS011;54508;43.238;25.306;2023-04-09T08:35:38;8.85;;;7.25;;
67715;SDS011;54508;43.238;25.306;2023-04-09T08:38:05;8.98;;;7.22;;
67715;SDS011;54508;43.238;25.306;2023-04-09T08:40:36;8.07;;;7.20;;
67715;SDS011;54508;43.238;25.306;2023-04-09T08:43:05;8.85;;;7.15;;
67715;SDS011;54508;43.238;25.306;2023-04-09T08:45:32;10.63;;;7.20;;
67715;SDS011;54508;43.238;25.306;2023-04-09T08:47:57;10.07;;;7.55;;
67715;SDS011;54508;43.238;25.306;2023-04-09T08:50:26;8.50;;;7.47;;
67715;SDS011;54508;43.238;25.306;2023-04-09T08:52:52;9.27;;;7.20;;
67715;SDS011;54508;43.238;25.306;2023-04-09T08:55:17;10.90;;;7.53;;
67715;SDS011;54508;43.238;25.306;2023-04-09T08:57:43;8.37;;;7.57;;
67715;SDS011;54508;43.238;25.306;2023-04-09T09:00:08;9.20;;;7.47;;
67715;SDS011;54508;43.238;25.306;2023-04-09T09:02:34;10.60;;;7.30;;
67715;SDS011;54508;43.238;25.306;2023-04-09T09:05:00;9.20;;;7.72;;
67715;SDS011;54508;43.238;25.306;2023-04-09T09:07:29;10.00;;;7.20;;
67715;SDS011;54508;43.238;25.306;2023-04-09T09:09:58;8.52;;;7.30;;
67715;SDS011;54508;43.238;25.306;2023-04-09T09:17:57;9.20;;;7.13;;
67715;SDS011;54508;43.238;25.306;2023-04-09T09:20:24;9.43;;;6.97;;
67715;SDS011;54508;43.238;25.306;2023-04-09T09:22:52;8.20;;;7.22;;
67715;SDS011;54508;43.238;25.306;2023-04-09T09:25:18;9.65;;;6.93;;
67715;SDS011;54508;43.238;25.306;2023-04-09T09:27:50;9.23;;;7.00;;
67715;SDS011;54508;43.238;25.306;2023-04-09T09:30:20;10.27;;;6.80;;
67715;SDS011;54508;43.238;25.306;2023-04-09T09:32:49;7.75;;;6.53;;
67715;SDS011;54508;43.238;25.306;2023-04-09T09:35:16;7.82;;;7.03;;
67715;SDS011;54508;43.238;25.306;2023-04-09T09:37:42;9.47;;;7.20;;
67715;SDS011;54508;43.238;25.306;2023-04-09T09:40:07;9.33;;;6.40;;
67715;SDS011;54508;43.238;25.306;2023-04-09T09:42:33;9.82;;;6.95;;
67715;SDS011;54508;43.238;25.306;2023-04-09T09:44:59;8.43;;;7.05;;
67715;SDS011;54508;43.238;25.306;2023-04-09T09:47:26;10.13;;;6.97;;
67715;SDS011;54508;43.238;25.306;2023-04-09T09:49:53;8.02;;;6.85;;
67715;SDS011;54508;43.238;25.306;2023-04-09T09:52:20;9.30;;;7.03;;
67715;SDS011;54508;43.238;25.306;2023-04-09T09:54:50;7.25;;;6.40;;
67715;SDS011;54508;43.238;25.306;2023-04-09T09:57:17;7.25;;;6.55;;
67715;SDS011;54508;43.238;25.306;2023-04-09T09:59:46;7.60;;;6.53;;
67715;SDS011;54508;43.238;25.306;2023-04-09T10:02:19;8.07;;;6.70;;
67715;SDS011;54508;43.238;25.306;2023-04-09T10:04:47;8.85;;;6.80;;
67715;SDS011;54508;43.238;25.306;2023-04-09T10:07:14;9.73;;;6.88;;
67715;SDS011;54508;43.238;25.306;2023-04-09T10:09:41;8.68;;;6.95;;
67715;SDS011;54508;43.238;25.306;2023-04-09T10:12:12;8.45;;;6.53;;
67715;SDS011;54508;43.238;25.306;2023-04-09T10:14:38;7.57;;;6.03;;
67715;SDS011;54508;43.238;25.306;2023-04-09T10:17:04;7.55;;;6.75;;
67715;SDS011;54508;43.238;25.306;2023-04-09T10:19:34;8.85;;;6.38;;
67715;SDS011;54508;43.238;25.306;2023-04-09T10:22:09;7.65;;;6.30;;
67715;SDS011;54508;43.238;25.306;2023-04-09T10:24:36;9.03;;;5.90;;
67715;SDS011;54508;43.238;25.306;2023-04-09T10:27:11;9.68;;;6.10;;
67715;SDS011;54508;43.238;25.306;2023-04-09T10:32:09;8.10;;;6.32;;
67715;SDS011;54508;43.238;25.306;2023-04-09T10:34:38;8.10;;;6.78;;
67715;SDS011;54508;43.238;25.306;2023-04-09T10:37:10;7.85;;;6.40;;
67715;SDS011;54508;43.238;25.306;2023-04-09T10:39:45;9.90;;;6.63;;
67715;SDS011;54508;43.238;25.306;2023-04-09T10:42:21;7.63;;;5.90;;
67715;SDS011;54508;43.238;25.306;2023-04-09T10:45:04;9.30;;;6.68;;
67715;SDS011;54508;43.238;25.306;2023-04-09T10:47:31;8.85;;;5.82;;
67715;SDS011;54508;43.238;25.306;2023-04-09T10:50:04;7.40;;;6.22;;
67715;SDS011;54508;43.238;25.306;2023-04-09T10:53:01;7.60;;;5.82;;
67715;SDS011;54508;43.238;25.306;2023-04-09T10:55:38;7.88;;;6.43;;
67715;SDS011;54508;43.238;25.306;2023-04-09T10:58:07;7.75;;;6.00;;
67715;SDS011;54508;43.238;25.306;2023-04-09T11:00:38;7.07;;;6.05;;
67715;SDS011;54508;43.238;25.306;2023-04-09T11:03:08;7.22;;;5.63;;
67715;SDS011;54508;43.238;25.306;2023-04-09T11:05:50;7.10;;;6.30;;
67715;SDS011;54508;43.238;25.306;2023-04-09T11:08:19;7.50;;;5.82;;
67715;SDS011;54508;43.238;25.306;2023-04-09T11:10:46;8.20;;;5.80;;
67715;SDS011;54508;43.238;25.306;2023-04-09T11:13:15;6.97;;;5.55;;
67715;SDS011;54508;43.238;25.306;2023-04-09T11:15:42;9.50;;;5.85;;
67715;SDS011;54508;43.238;25.306;2023-04-09T11:18:08;8.32;;;6.00;;
67715;SDS011;54508;43.238;25.306;2023-04-09T11:20:47;9.45;;;6.03;;
67715;SDS011;54508;43.238;25.306;2023-04-09T11:23:14;6.65;;;5.20;;
67715;SDS011;54508;43.238;25.306;2023-04-09T11:25:40;6.18;;;4.95;;
67715;SDS011;54508;43.238;25.306;2023-04-09T11:28:05;8.70;;;5.63;;
67715;SDS011;54508;43.238;25.306;2023-04-09T11:30:32;7.28;;;5.40;;
67715;SDS011;54508;43.238;25.306;2023-04-09T11:32:58;6.95;;;5.93;;
67715;SDS011;54508;43.238;25.306;2023-04-09T11:35:24;6.97;;;5.63;;
67715;SDS011;54508;43.238;25.306;2023-04-09T11:37:50;6.53;;;5.50;;
67715;SDS011;54508;43.238;25.306;2023-04-09T11:40:17;5.97;;;5.05;;
67715;SDS011;54508;43.238;25.306;2023-04-09T11:42:44;7.97;;;5.25;;
67715;SDS011;54508;43.238;25.306;2023-04-09T11:45:10;7.03;;;5.53;;
67715;SDS011;54508;43.238;25.306;2023-04-09T11:47:37;5.55;;;4.93;;
67715;SDS011;54508;43.238;25.306;2023-04-09T11:50:05;6.20;;;5.60;;
67715;SDS011;54508;43.238;25.306;2023-04-09T11:52:32;5.47;;;4.82;;
67715;SDS011;54508;43.238;25.306;2023-04-09T11:55:00;6.20;;;5.13;;
67715;SDS011;54508;43.238;25.306;2023-04-09T11:57:39;8.00;;;5.60;;
67715;SDS011;54508;43.238;25.306;2023-04-09T12:00:12;5.80;;;5.18;;
67715;SDS011;54508;43.238;25.306;2023-04-09T12:02:48;6.18;;;5.35;;
67715;SDS011;54508;43.238;25.306;2023-04-09T12:05:22;8.15;;;5.10;;
67715;SDS011;54508;43.238;25.306;2023-04-09T12:07:50;9.32;;;5.10;;
67715;SDS011;54508;43.238;25.306;2023-04-09T12:10:16;7.93;;;5.47;;
67715;SDS011;54508;43.238;25.306;2023-04-09T12:12:45;8.10;;;5.05;;
67715;SDS011;54508;43.238;25.306;2023-04-09T12:15:18;6.60;;;5.05;;
67715;SDS011;54508;43.238;25.306;2023-04-09T12:17:46;6.93;;;4.90;;
67715;SDS011;54508;43.238;25.306;2023-04-09T12:22:53;5.82;;;5.22;;
67715;SDS011;54508;43.238;25.306;2023-04-09T12:25:18;6.90;;;4.88;;
67715;SDS011;54508;43.238;25.306;2023-04-09T12:27:44;6.70;;;4.60;;
67715;SDS011;54508;43.238;25.306;2023-04-09T12:30:10;6.50;;;5.23;;
67715;SDS011;54508;43.238;25.306;2023-04-09T12:32:35;7.13;;;4.90;;
67715;SDS011;54508;43.238;25.306;2023-04-09T12:35:01;6.22;;;4.88;;
67715;SDS011;54508;43.238;25.306;2023-04-09T12:37:26;7.07;;;5.53;;
67715;SDS011;54508;43.238;25.306;2023-04-09T12:39:53;7.00;;;4.85;;
67715;SDS011;54508;43.238;25.306;2023-04-09T12:42:18;6.28;;;5.00;;
67715;SDS011;54508;43.238;25.306;2023-04-09T12:44:43;7.30;;;4.90;;
67715;SDS011;54508;43.238;25.306;2023-04-09T12:47:09;5.83;;;4.97;;
67715;SDS011;54508;43.238;25.306;2023-04-09T12:49:34;7.13;;;5.27;;
67715;SDS011;54508;43.238;25.306;2023-04-09T12:52:00;6.20;;;5.05;;
67715;SDS011;54508;43.238;25.306;2023-04-09T12:54:26;5.77;;;4.87;;
67715;SDS011;54508;43.238;25.306;2023-04-09T12:56:51;6.10;;;4.78;;
67715;SDS011;54508;43.238;25.306;2023-04-09T12:59:17;5.00;;;4.23;;
67715;SDS011;54508;43.238;25.306;2023-04-09T13:01:42;5.30;;;4.50;;
67715;SDS011;54508;43.238;25.306;2023-04-09T13:04:07;6.30;;;5.07;;
67715;SDS011;54508;43.238;25.306;2023-04-09T13:06:33;6.85;;;5.15;;
67715;SDS011;54508;43.238;25.306;2023-04-09T13:08:59;5.50;;;4.57;;
67715;SDS011;54508;43.238;25.306;2023-04-09T13:11:24;6.43;;;4.73;;
67715;SDS011;54508;43.238;25.306;2023-04-09T13:13:49;6.40;;;4.77;;
67715;SDS011;54508;43.238;25.306;2023-04-09T13:16:16;6.63;;;4.60;;
67715;SDS011;54508;43.238;25.306;2023-04-09T13:18:41;5.93;;;4.57;;
67715;SDS011;54508;43.238;25.306;2023-04-09T13:21:07;5.70;;;4.43;;
67715;SDS011;54508;43.238;25.306;2023-04-09T13:23:32;5.37;;;4.50;;
67715;SDS011;54508;43.238;25.306;2023-04-09T13:25:58;6.47;;;4.93;;
67715;SDS011;54508;43.238;25.306;2023-04-09T13:28:24;6.03;;;4.15;;
67715;SDS011;54508;43.238;25.306;2023-04-09T13:30:50;5.10;;;4.57;;
67715;SDS011;54508;43.238;25.306;2023-04-09T13:33:16;6.05;;;4.55;;
67715;SDS011;54508;43.238;25.306;2023-04-09T13:35:42;5.80;;;4.33;;
67715;SDS011;54508;43.238;25.306;2023-04-09T13:38:07;4.50;;;4.10;;
67715;SDS011;54508;43.238;25.306;2023-04-09T13:40:33;6.63;;;4.45;;
67715;SDS011;54508;43.238;25.306;2023-04-09T13:42:58;5.60;;;4.50;;
67715;SDS011;54508;43.238;25.306;2023-04-09T13:45:25;7.18;;;4.78;;
67715;SDS011;54508;43.238;25.306;2023-04-09T13:47:50;6.30;;;4.57;;
67715;SDS011;54508;43.238;25.306;2023-04-09T13:50:15;5.30;;;4.18;;
67715;SDS011;54508;43.238;25.306;2023-04-09T13:52:41;6.17;;;4.63;;
67715;SDS011;54508;43.238;25.306;2023-04-09T13:55:07;5.30;;;4.23;;
67715;SDS011;54508;43.238;25.306;2023-04-09T13:57:33;7.15;;;4.68;;
67715;SDS011;54508;43.238;25.306;2023-04-09T13:59:58;6.73;;;4.77;;
67715;SDS011;54508;43.238;25.306;2023-04-09T14:02:27;6.00;;;4.00;;
67715;SDS011;54508;43.238;25.306;2023-04-09T14:04:53;6.20;;;4.07;;
67715;SDS011;54508;43.238;25.306;2023-04-09T14:07:18;5.37;;;4.43;;
67715;SDS011;54508;43.238;25.306;2023-04-09T14:09:44;4.95;;;4.35;;
67715;SDS011;54508;43.238;25.306;2023-04-09T14:12:09;5.57;;;4.40;;
67715;SDS011;54508;43.238;25.306;2023-04-09T14:14:35;5.20;;;4.30;;
67715;SDS011;54508;43.238;25.306;2023-04-09T14:17:00;5.03;;;4.00;;
67715;SDS011;54508;43.238;25.306;2023-04-09T14:19:26;5.27;;;3.87;;
67715;SDS011;54508;43.238;25.306;2023-04-09T14:21:51;5.93;;;4.20;;
67715;SDS011;54508;43.238;25.306;2023-04-09T14:24:19;5.38;;;4.65;;
67715;SDS011;54508;43.238;25.306;2023-04-09T14:26:47;6.03;;;4.53;;
67715;SDS011;54508;43.238;25.306;2023-04-09T14:29:17;6.00;;;4.27;;
67715;SDS011;54508;43.238;25.306;2023-04-09T14:31:43;5.75;;;4.20;;
67715;SDS011;54508;43.238;25.306;2023-04-09T14:34:09;5.83;;;4.27;;
67715;SDS011;54508;43.238;25.306;2023-04-09T14:36:34;4.90;;;3.85;;
67715;SDS011;54508;43.238;25.306;2023-04-09T14:39:00;5.00;;;4.10;;
67715;SDS011;54508;43.238;25.306;2023-04-09T14:41:25;6.07;;;4.78;;
67715;SDS011;54508;43.238;25.306;2023-04-09T14:43:51;5.43;;;4.00;;
67715;SDS011;54508;43.238;25.306;2023-04-09T14:46:16;5.47;;;4.30;;
67715;SDS011;54508;43.238;25.306;2023-04-09T14:48:44;5.67;;;4.10;;
67715;SDS011;54508;43.238;25.306;2023-04-09T14:51:13;5.95;;;4.22;;